Latest Conditions
At L.F.Wade Int. Airport
Recorded at 6:55 pm
Mostly Cloudy
Temp.: 
28°C/82°F
Humidity: 
78%
Wind: 
SSE 10KT
or 12mph
UV Index: 
0
Island Observations
 
Observations
Thursday, September 16, 2021

Observations are in local time and taken at least once an hour, or upon the start and end of specified events such as showers and thunderstorms.

Time Sky / Weather Wind Speed/Gusts Temp. R.H. Pressure
     knots (mph)  °C (°F)  %  mb / "Hg
 18:55 Mostly Cloudy  SSE 10/0 (12/0) 28(82) 78 1023 / 30.20
 17:55 Mostly Cloudy  SSE 11/0 (13/0) 28(82) 77 1022 / 30.18
 16:55 Mostly Cloudy  SE 10/0 (12/0) 28(83) 73 1022 / 30.18
 15:55 Mostly Cloudy  SE 11/0 (13/0) 29(85) 70 1022 / 30.18
 14:55 Overcast Showers SSE 11/0 (13/0) 28(83) 72 1023 / 30.20
 13:55 Mostly Cloudy  SE 11/0 (13/0) 29(84) 71 1023 / 30.21
 12:55 Mostly Cloudy Showers SE 12/0 (14/0) 29(84) 71 1023 / 30.22
 11:55 Mostly Cloudy  SE 12/0 (14/0) 29(84) 71 1023 / 30.22
 10:55 Mostly Cloudy  SE 12/0 (14/0) 28(83) 69 1023 / 30.22
 09:55 Mostly Cloudy  SE 12/0 (14/0) 28(82) 75 1023 / 30.21
 08:55 Mostly Cloudy  ESE 11/0 (13/0) 28(82) 74 1023 / 30.20
 07:55 Mostly Cloudy  ESE 11/0 (13/0) 27(81) 79 1022 / 30.19
 06:55 Mostly Cloudy  ESE 9/0 (10/0) 27(80) 80 1022 / 30.17
 05:55 Mostly Cloudy  ESE 8/0 (9/0) 27(80) 77 1022 / 30.17
 04:55 Mostly Cloudy  ESE 8/0 (9/0) 27(80) 75 1022 / 30.17
 03:55 Mostly Cloudy  ESE 8/0 (9/0) 27(80) 74 1022 / 30.17
 02:55 Mostly Cloudy  ESE 8/0 (9/0) 27(81) 74 1022 / 30.18
 01:55 Mostly Cloudy  ESE 9/0 (10/0) 27(81) 75 1022 / 30.18
 00:55 Mostly Cloudy  ESE 9/0 (10/0) 27(81) 78 1022 / 30.19
 23:55 Mostly Cloudy  ESE 9/0 (10/0) 27(81) 77 1022 / 30.19
 22:55 Overcast  ESE 8/0 (9/0) 27(81) 78 1022 / 30.19
 22:12 Overcast  ESE 8/0 (9/0) 27(81) 78 1022 / 30.19
 21:55 Overcast  ESE 10/0 (12/0) 27(80) 80 1022 / 30.18
 20:55 Overcast  E 8/0 (9/0) 27(80) 80 1022 / 30.17
 19:55 Overcast  E 8/0 (9/0) 27(81) 78 1021 / 30.16
 18:55 Overcast Showers E 10/0 (12/0) 28(82) 75 1021 / 30.15
 17:55 Mostly Cloudy  E 8/0 (9/0) 28(82) 75 1021 / 30.15
 16:55 Partly Cloudy  ESE 9/0 (10/0) 29(84) 70 1021 / 30.14
 15:55 Few Clouds  ESE 9/0 (10/0) 29(85) 71 1021 / 30.14
 14:55 Few Clouds  SE 10/0 (12/0) 29(85) 67 1021 / 30.16
 13:55 Few Clouds  ESE 10/0 (12/0) 29(84) 70 1021 / 30.16
 12:55 Few Clouds  ESE 10/0 (12/0) 29(84) 70 1021 / 30.16
 11:55 Few Clouds  ESE 10/0 (12/0) 29(84) 71 1022 / 30.17
 10:55 Partly Cloudy  ESE 13/0 (15/0) 28(82) 73 1022 / 30.17
 09:55 Partly Cloudy  E 13/0 (15/0) 28(82) 75 1021 / 30.16
 08:55 Overcast  E 10/0 (12/0) 28(82) 74 1021 / 30.15
 07:55 Overcast Showers E 9/0 (10/0) 27(80) 80 1021 / 30.14
 06:55 Overcast  E 8/0 (9/0) 26(79) 82 1020 / 30.12
 05:55 Mostly Cloudy Showers E 7/0 (8/0) 26(79) 83 1020 / 30.11
 05:36 Mostly Cloudy Showers E 5/0 (6/0) 26(79) 84 1020 / 30.11
 04:55 Mostly Cloudy Showers E 5/0 (6/0) 26(78) 83 1020 / 30.11
 03:55 Mostly Cloudy  ESE 5/0 (6/0) 27(80) 82 1020 / 30.11
 02:55 Mostly Cloudy  ESE 5/0 (6/0) 26(78) 84 1020 / 30.11
 01:55 Mostly Cloudy  E 4/0 (5/0) 26(79) 80 1020 / 30.12
 00:55 Mostly Cloudy  E 5/0 (6/0) 26(78) 81 1020 / 30.12
 23:55 Mostly Cloudy  ENE 6/0 (7/0) 26(79) 84 1020 / 30.12
 23:18 Mostly Cloudy Showers E 9/0 (10/0) 26(79) 80 1020 / 30.12
 23:06 Mostly Cloudy Showers E 11/0 (13/0) 27(81) 79 1020 / 30.12
 22:55 Mostly Cloudy Showers E 5/0 (6/0) 26(79) 85 1020 / 30.12
 21:55 Mostly Cloudy Showers E 4/0 (5/0) 26(80) 83 1020 / 30.11
 20:55 Mostly Cloudy  E 4/0 (5/0) 27(80) 80 1019 / 30.10
 19:55 Mostly Cloudy  VRB 2/0 (2/0) 27(81) 77 1019 / 30.10
 18:55 Mostly Cloudy Showers VRB 2/0 (2/0) 28(82) 76 1019 / 30.09
 17:55 Mostly Cloudy  SSE 5/0 (6/0) 28(82) 73 1019 / 30.09
 16:55 Partly Cloudy  SSE 6/0 (7/0) 28(83) 72 1018 / 30.07
 15:55 Mostly Cloudy  SSE 6/0 (7/0) 28(83) 77 1018 / 30.07
 14:55 Mostly Cloudy  ESE 6/0 (7/0) 28(82) 78 1019 / 30.09
 13:55 Mostly Cloudy  ESE 7/0 (8/0) 28(82) 78 1019 / 30.09
 12:55 Mostly Cloudy  E 7/0 (8/0) 28(82) 75 1020 / 30.11
 11:55 Mostly Cloudy Showers S 4/0 (5/0) 27(81) 77 1021 / 30.14
 11:41 Mostly Cloudy Showers SSW 5/0 (6/0) 27(81) 77 1021 / 30.14
 11:12 Mostly Cloudy Showers E 5/0 (6/0) 27(81) 77 1021 / 30.14
 11:05 Mostly Cloudy Thunderstorm E 3/0 (3/0) 27(81) 77 1021 / 30.14
 10:55 Mostly Cloudy Thunderstorm NNE 4/0 (5/0) 27(81) 74 1021 / 30.14
 09:55 Mostly Cloudy  Calm 28(83) 74 1020 / 30.13
 08:55 Mostly Cloudy  VRB 1/0 (1/0) 27(80) 82 1020 / 30.12
 07:55 Mostly Cloudy  NE 2/0 (2/0) 27(80) 78 1019 / 30.10
 06:55 Mostly Cloudy  Calm 25(78) 85 1019 / 30.09
 05:55 Mostly Cloudy  WSW 1/0 (1/0) 26(78) 87 1019 / 30.08
 04:55 Mostly Cloudy Showers S 3/0 (3/0) 26(79) 84 1019 / 30.09
 03:55 Mostly Cloudy  S 2/0 (2/0) 26(79) 84 1019 / 30.09
 02:55 Mostly Cloudy Showers SSW 2/0 (2/0) 26(79) 82 1019 / 30.09
 01:55 Mostly Cloudy Showers S 4/0 (5/0) 26(79) 83 1020 / 30.11
 00:55 Mostly Cloudy Showers S 3/0 (3/0) 26(80) 82 1020 / 30.12
 23:55 Mostly Cloudy Showers VRB 2/0 (2/0) 27(80) 80 1020 / 30.12
 22:55 Mostly Cloudy Showers SSE 6/0 (7/0) 26(80) 82 1020 / 30.12
 21:55 Mostly Cloudy Showers ESE 6/0 (7/0) 27(80) 81 1020 / 30.12
 21:15 Mostly Cloudy Showers SE 6/0 (7/0) 26(79) 86 1020 / 30.12
 20:55 Mostly Cloudy Showers SE 9/0 (10/0) 26(79) 86 1020 / 30.12
 20:42 Overcast Showers SSE 9/0 (10/0) 27(80) 81 1020 / 30.12
 19:55 Overcast  ESE 9/0 (10/0) 27(81) 77 1020 / 30.11
 18:55 Overcast  E 9/0 (10/0) 27(81) 77 1020 / 30.11
 17:55 Overcast  E 8/0 (9/0) 28(82) 76 1020 / 30.12
 17:10 Overcast Showers E 6/0 (7/0) 28(83) 78 1020 / 30.12
 17:01 Overcast Showers ESE 7/0 (8/0) 27(81) 81 1020 / 30.12
 16:55 Overcast Showers ESE 6/0 (7/0) 28(82) 77 1020 / 30.12
 16:41 Overcast Showers ESE 6/0 (7/0) 28(82) 74 1020 / 30.12
 16:36 Overcast  ESE 6/0 (7/0) 28(82) 74 1020 / 30.13
 16:12 Overcast Showers SE 5/0 (6/0) 28(83) 72 1021 / 30.14
 15:55 Overcast Showers SE 5/0 (6/0) 28(83) 71 1021 / 30.14
 14:55 Mostly Cloudy Showers SE 7/0 (8/0) 29(84) 69 1021 / 30.15
 13:55 Mostly Cloudy Showers ESE 7/0 (8/0) 28(83) 73 1022 / 30.17
 12:55 Mostly Cloudy Showers SE 7/0 (8/0) 28(83) 73 1022 / 30.19
 11:55 Mostly Cloudy  ESE 7/0 (8/0) 28(83) 74 1023 / 30.20
 10:55 Mostly Cloudy  ESE 8/0 (9/0) 29(84) 66 1023 / 30.21
 09:55 Mostly Cloudy  E 8/0 (9/0) 28(83) 68 1023 / 30.21
 08:55 Mostly Cloudy Showers E 7/0 (8/0) 27(81) 73 1023 / 30.20
 07:55 Mostly Cloudy  E 6/0 (7/0) 26(79) 80 1023 / 30.20
 06:55 Mostly Cloudy  E 5/0 (6/0) 26(78) 82 1022 / 30.18
 05:55 Partly Cloudy  E 3/0 (3/0) 26(78) 79 1022 / 30.18
Island AWOS